Time,TemperatureF,DewpointF,PressureIn,WindDirection,WindDirectionDegrees,WindSpeedMPH,WindSpeedGustMPH,Humidity,HourlyPrecipIn,Conditions,Clouds,dailyrainin,SoftwareType,DateUTC
2013-03-08 00:02:00,33.0,30.0,30.31,ENE,67,2.0,4.0,90,0.00,,,0.07,,2013-03-08 05:02:00,
2013-03-08 00:12:00,33.0,30.0,30.31,ENE,67,2.0,4.0,90,0.00,,,0.07,,2013-03-08 05:12:00,
2013-03-08 00:22:00,33.0,31.0,30.31,NE,45,2.0,4.0,91,0.00,,,0.07,,2013-03-08 05:22:00,
2013-03-08 00:32:00,32.0,29.0,30.31,NE,45,0.0,1.0,90,0.00,,,0.07,,2013-03-08 05:32:00,
2013-03-08 00:42:00,32.0,29.0,30.31,NE,45,0.0,1.0,90,0.00,,,0.07,,2013-03-08 05:42:00,
2013-03-08 00:52:00,32.0,29.0,30.31,ENE,67,1.0,2.0,90,0.00,,,0.07,,2013-03-08 05:52:00,
2013-03-08 01:01:00,32.0,30.0,30.31,ENE,67,2.0,3.0,91,0.00,,,0.07,,2013-03-08 06:01:00,
2013-03-08 01:11:00,32.0,30.0,30.31,ENE,67,2.0,3.0,91,0.00,,,0.07,,2013-03-08 06:11:00,
2013-03-08 01:21:00,32.0,29.0,30.31,ENE,67,1.0,2.0,90,0.00,,,0.07,,2013-03-08 06:21:00,
2013-03-08 01:32:00,31.0,29.0,30.29,ENE,67,1.0,3.0,91,0.00,,,0.07,,2013-03-08 06:32:00,
2013-03-08 01:42:00,31.0,29.0,30.29,ENE,67,1.0,3.0,91,0.00,,,0.07,,2013-03-08 06:42:00,
2013-03-08 01:51:00,31.0,29.0,30.31,NE,45,1.0,2.0,92,0.00,,,0.07,,2013-03-08 06:51:00,
2013-03-08 02:01:00,31.0,29.0,30.31,ENE,67,0.0,0.0,92,0.00,,,0.07,,2013-03-08 07:01:00,
2013-03-08 02:11:00,31.0,29.0,30.31,ENE,67,0.0,0.0,92,0.00,,,0.07,,2013-03-08 07:11:00,
2013-03-08 02:21:00,31.0,30.0,30.31,ENE,67,0.0,0.0,95,0.00,,,0.07,,2013-03-08 07:21:00,
2013-03-08 02:31:00,31.0,30.0,30.31,ENE,67,0.0,0.0,95,0.00,,,0.07,,2013-03-08 07:31:00,
2013-03-08 02:42:00,31.0,30.0,30.31,ENE,67,0.0,0.0,95,0.00,,,0.07,,2013-03-08 07:42:00,
2013-03-08 02:52:00,30.0,29.0,30.32,ENE,67,0.0,0.0,97,0.00,,,0.07,,2013-03-08 07:52:00,
2013-03-08 03:01:00,31.0,31.0,30.32,ENE,67,0.0,0.0,100,0.00,,,0.07,,2013-03-08 08:01:00,
2013-03-08 03:11:00,31.0,31.0,30.32,ENE,67,0.0,0.0,100,0.00,,,0.07,,2013-03-08 08:11:00,
2013-03-08 03:21:00,31.0,31.0,30.32,ENE,67,0.0,0.0,99,0.00,,,0.07,,2013-03-08 08:21:00,
2013-03-08 03:31:00,31.0,31.0,30.32,ENE,67,0.0,0.0,100,0.00,,,0.07,,2013-03-08 08:31:00,
2013-03-08 03:42:00,31.0,31.0,30.32,ENE,67,0.0,0.0,100,0.00,,,0.07,,2013-03-08 08:42:00,
2013-03-08 03:52:00,31.0,31.0,30.32,ENE,67,0.0,0.0,100,0.00,,,0.07,,2013-03-08 08:52:00,
2013-03-08 04:02:00,30.0,30.0,30.32,ENE,67,0.0,1.0,100,0.00,,,0.07,,2013-03-08 09:02:00,
2013-03-08 04:11:00,30.0,30.0,30.32,ENE,67,0.0,1.0,100,0.00,,,0.07,,2013-03-08 09:11:00,
2013-03-08 04:21:00,29.0,29.0,30.32,ENE,67,0.0,0.0,100,0.00,,,0.07,,2013-03-08 09:21:00,
2013-03-08 04:32:00,29.0,29.0,30.32,ENE,67,0.0,0.0,100,0.00,,,0.07,,2013-03-08 09:32:00,
2013-03-08 04:42:00,29.0,29.0,30.32,ENE,67,0.0,0.0,100,0.00,,,0.07,,2013-03-08 09:42:00,
2013-03-08 04:52:00,27.0,27.0,30.32,ENE,67,0.0,0.0,100,0.00,,,0.07,,2013-03-08 09:52:00,
2013-03-08 05:01:00,26.0,26.0,30.33,ENE,67,0.0,0.0,100,0.00,,,0.07,,2013-03-08 10:01:00,
2013-03-08 05:11:00,26.0,26.0,30.33,ENE,67,0.0,0.0,100,0.00,,,0.07,,2013-03-08 10:11:00,
2013-03-08 05:21:00,25.0,25.0,30.34,ENE,67,0.0,1.0,100,0.00,,,0.07,,2013-03-08 10:21:00,
2013-03-08 05:31:00,25.0,25.0,30.34,ENE,67,0.0,0.0,100,0.00,,,0.07,,2013-03-08 10:31:00,
2013-03-08 05:41:00,25.0,25.0,30.34,ENE,67,0.0,0.0,100,0.00,,,0.07,,2013-03-08 10:41:00,
2013-03-08 05:51:00,25.0,25.0,30.34,ENE,67,0.0,0.0,100,0.00,,,0.07,,2013-03-08 10:51:00,
2013-03-08 06:01:00,25.0,25.0,30.34,ENE,67,0.0,1.0,100,0.00,,,0.07,,2013-03-08 11:01:00,
2013-03-08 06:11:00,25.0,25.0,30.34,ENE,67,0.0,1.0,100,0.00,,,0.07,,2013-03-08 11:11:00,
2013-03-08 06:21:00,25.0,25.0,30.34,ENE,67,1.0,2.0,100,0.00,,,0.07,,2013-03-08 11:21:00,
2013-03-08 06:32:00,25.0,25.0,30.34,ENE,67,0.0,0.0,100,0.00,,,0.07,,2013-03-08 11:32:00,
2013-03-08 06:42:00,25.0,25.0,30.34,ENE,67,0.0,0.0,100,0.00,,,0.07,,2013-03-08 11:42:00,
2013-03-08 06:52:00,25.0,25.0,30.34,ENE,67,0.0,0.0,100,0.00,,,0.07,,2013-03-08 11:52:00,
2013-03-08 07:01:00,26.0,26.0,30.33,ENE,67,1.0,2.0,100,0.00,,,0.07,,2013-03-08 12:01:00,
2013-03-08 07:11:00,26.0,26.0,30.33,ENE,67,1.0,2.0,100,0.00,,,0.07,,2013-03-08 12:11:00,
2013-03-08 07:22:00,26.0,26.0,30.34,ENE,67,0.0,1.0,100,0.00,,,0.07,,2013-03-08 12:22:00,
2013-03-08 07:32:00,26.0,26.0,30.34,NE,45,0.0,0.0,100,0.00,,,0.07,,2013-03-08 12:32:00,
2013-03-08 07:43:00,26.0,26.0,30.34,NE,45,0.0,0.0,100,0.00,,,0.07,,2013-03-08 12:43:00,
2013-03-08 07:52:00,26.0,26.0,30.34,NE,45,0.0,0.0,100,0.00,,,0.07,,2013-03-08 12:52:00,
2013-03-08 08:01:00,27.0,27.0,30.34,NE,45,0.0,0.0,100,0.00,,,0.07,,2013-03-08 13:01:00,
2013-03-08 08:11:00,27.0,27.0,30.34,NE,45,0.0,0.0,100,0.00,,,0.07,,2013-03-08 13:11:00,
2013-03-08 08:21:00,30.0,30.0,30.35,NE,45,1.0,2.0,100,0.00,,,0.07,,2013-03-08 13:21:00,
2013-03-08 08:32:00,31.0,31.0,30.35,NE,45,2.0,3.0,100,0.00,,,0.07,,2013-03-08 13:32:00,
2013-03-08 08:42:00,31.0,31.0,30.35,NE,45,2.0,3.0,100,0.00,,,0.07,,2013-03-08 13:42:00,
2013-03-08 08:52:00,35.0,35.0,30.37,NNE,22,1.0,2.0,100,0.00,,,0.07,,2013-03-08 13:52:00,
2013-03-08 09:02:00,37.0,37.0,30.39,ESE,112,2.0,4.0,100,0.00,,,0.07,,2013-03-08 14:02:00,
2013-03-08 09:11:00,37.0,37.0,30.39,ESE,112,2.0,4.0,100,0.00,,,0.07,,2013-03-08 14:11:00,
2013-03-08 09:22:00,38.0,34.0,30.39,ESE,112,2.0,4.0,84,0.00,,,0.07,,2013-03-08 14:22:00,
2013-03-08 09:32:00,39.0,33.0,30.40,ENE,67,4.0,6.0,79,0.00,,,0.07,,2013-03-08 14:32:00,
2013-03-08 09:42:00,39.0,33.0,30.40,ENE,67,4.0,6.0,79,0.00,,,0.07,,2013-03-08 14:42:00,
2013-03-08 09:52:00,40.0,31.0,30.41,East,90,5.0,8.0,71,0.00,,,0.07,,2013-03-08 14:52:00,
2013-03-08 10:02:00,40.0,31.0,30.41,East,90,5.0,8.0,71,0.00,,,0.07,,2013-03-08 15:02:00,
2013-03-08 10:11:00,41.0,32.0,30.41,South,180,1.0,3.0,70,0.00,,,0.07,,2013-03-08 15:11:00,
2013-03-08 10:22:00,41.0,32.0,30.41,South,180,1.0,3.0,70,0.00,,,0.07,,2013-03-08 15:22:00,
2013-03-08 10:32:00,41.0,31.0,30.41,North,360,6.0,7.0,67,0.00,,,0.07,,2013-03-08 15:32:00,
2013-03-08 10:43:00,41.0,31.0,30.41,North,360,6.0,7.0,67,0.00,,,0.07,,2013-03-08 15:43:00,
2013-03-08 10:53:00,41.0,30.0,30.41,South,180,5.0,7.0,64,0.00,,,0.07,,2013-03-08 15:53:00,
2013-03-08 11:01:00,43.0,32.0,30.41,NNE,22,2.0,5.0,65,0.00,,,0.07,,2013-03-08 16:01:00,
2013-03-08 11:11:00,43.0,32.0,30.41,NNE,22,2.0,5.0,65,0.00,,,0.07,,2013-03-08 16:11:00,
2013-03-08 11:21:00,44.0,33.0,30.41,East,90,3.0,7.0,64,0.00,,,0.06,,2013-03-08 16:21:00,
2013-03-08 11:32:00,44.0,33.0,30.41,SE,135,5.0,8.0,64,0.00,,,0.06,,2013-03-08 16:32:00,
2013-03-08 11:42:00,44.0,33.0,30.41,SE,135,5.0,8.0,64,0.00,,,0.06,,2013-03-08 16:42:00,
2013-03-08 11:52:00,45.0,33.0,30.41,ENE,67,2.0,4.0,62,0.00,,,0.04,,2013-03-08 16:52:00,
2013-03-08 12:02:00,46.0,34.0,30.42,North,360,6.0,9.0,63,0.00,,,0.02,,2013-03-08 17:02:00,
2013-03-08 12:11:00,46.0,34.0,30.42,North,360,6.0,9.0,63,0.00,,,0.02,,2013-03-08 17:11:00,
2013-03-08 12:21:00,46.0,34.0,30.42,NNE,22,4.0,7.0,62,0.00,,,0.01,,2013-03-08 17:21:00,
2013-03-08 12:32:00,47.0,33.0,30.42,West,270,1.0,2.0,59,0.00,,,0.01,,2013-03-08 17:32:00,
2013-03-08 12:42:00,47.0,33.0,30.42,West,270,1.0,2.0,59,0.00,,,0.01,,2013-03-08 17:42:00,
2013-03-08 12:52:00,47.0,33.0,30.42,ENE,67,3.0,7.0,58,0.00,,,0.00,,2013-03-08 17:52:00,
2013-03-08 13:02:00,47.0,33.0,30.42,ENE,67,3.0,7.0,58,0.00,,,0.00,,2013-03-08 18:02:00,
2013-03-08 13:11:00,47.0,33.0,30.42,ENE,67,3.0,7.0,58,0.00,,,0.00,,2013-03-08 18:11:00,
2013-03-08 13:21:00,47.0,33.0,30.41,East,90,4.0,6.0,57,0.00,,,0.00,,2013-03-08 18:21:00,
2013-03-08 13:32:00,48.0,35.0,30.40,SSE,157,6.0,10.0,61,0.00,,,0.00,,2013-03-08 18:32:00,
2013-03-08 13:42:00,48.0,35.0,30.40,SSE,157,6.0,10.0,61,0.00,,,0.00,,2013-03-08 18:42:00,
2013-03-08 13:52:00,49.0,34.0,30.39,North,360,3.0,5.0,56,0.00,,,0.00,,2013-03-08 18:52:00,
2013-03-08 14:01:00,49.0,36.0,30.38,NNE,22,1.0,4.0,60,0.00,,,0.00,,2013-03-08 19:01:00,
2013-03-08 14:11:00,49.0,36.0,30.38,NNE,22,1.0,4.0,60,0.00,,,0.00,,2013-03-08 19:11:00,
2013-03-08 14:21:00,51.0,38.0,30.37,North,360,7.0,9.0,60,0.00,,,0.00,,2013-03-08 19:21:00,
2013-03-08 14:32:00,51.0,36.0,30.37,SE,135,3.0,5.0,57,0.00,,,0.00,,2013-03-08 19:32:00,
2013-03-08 14:41:00,51.0,36.0,30.37,SE,135,3.0,5.0,57,0.00,,,0.00,,2013-03-08 19:41:00,
2013-03-08 14:51:00,51.0,33.0,30.36,SE,135,4.0,7.0,50,0.00,,,0.00,,2013-03-08 19:51:00,
2013-03-08 15:01:00,51.0,31.0,30.35,ENE,67,4.0,6.0,47,0.00,,,0.00,,2013-03-08 20:01:00,
2013-03-08 15:11:00,51.0,31.0,30.35,ENE,67,4.0,6.0,47,0.00,,,0.00,,2013-03-08 20:11:00,
2013-03-08 15:21:00,52.0,33.0,30.35,NE,45,6.0,7.0,48,0.00,,,0.00,,2013-03-08 20:21:00,
2013-03-08 15:32:00,51.0,33.0,30.34,ENE,67,6.0,9.0,50,0.00,,,0.00,,2013-03-08 20:32:00,
2013-03-08 15:42:00,51.0,33.0,30.34,ENE,67,6.0,9.0,50,0.00,,,0.00,,2013-03-08 20:42:00,
2013-03-08 15:52:00,51.0,31.0,30.35,East,90,5.0,9.0,47,0.00,,,0.00,,2013-03-08 20:52:00,
2013-03-08 16:02:00,50.0,32.0,30.33,East,90,2.0,6.0,50,0.00,,,0.00,,2013-03-08 21:02:00,
2013-03-08 16:11:00,50.0,32.0,30.33,East,90,2.0,6.0,50,0.00,,,0.00,,2013-03-08 21:11:00,
2013-03-08 16:21:00,50.0,33.0,30.33,East,90,6.0,9.0,52,0.00,,,0.00,,2013-03-08 21:21:00,
2013-03-08 16:32:00,50.0,32.0,30.32,SE,135,3.0,7.0,50,0.00,,,0.00,,2013-03-08 21:32:00,
2013-03-08 16:42:00,50.0,32.0,30.32,SE,135,3.0,7.0,50,0.00,,,0.00,,2013-03-08 21:42:00,
2013-03-08 16:52:00,49.0,32.0,30.32,ESE,112,4.0,7.0,51,0.00,,,0.00,,2013-03-08 21:52:00,
2013-03-08 17:01:00,49.0,32.0,30.32,ESE,112,4.0,7.0,51,0.00,,,0.00,,2013-03-08 22:01:00,
2013-03-08 17:11:00,49.0,32.0,30.32,ESE,112,4.0,7.0,51,0.00,,,0.00,,2013-03-08 22:11:00,
2013-03-08 17:22:00,49.0,30.0,30.31,ENE,67,5.0,8.0,47,0.00,,,0.00,,2013-03-08 22:22:00,
2013-03-08 17:32:00,48.0,30.0,30.32,SE,135,2.0,5.0,49,0.00,,,0.00,,2013-03-08 22:32:00,
2013-03-08 17:42:00,48.0,30.0,30.32,SE,135,2.0,5.0,49,0.00,,,0.00,,2013-03-08 22:42:00,
2013-03-08 17:52:00,48.0,31.0,30.31,East,90,2.0,6.0,51,0.00,,,0.00,,2013-03-08 22:52:00,
2013-03-08 18:01:00,48.0,30.0,30.31,East,90,4.0,8.0,50,0.00,,,0.00,,2013-03-08 23:01:00,
2013-03-08 18:11:00,48.0,30.0,30.31,East,90,4.0,8.0,50,0.00,,,0.00,,2013-03-08 23:11:00,
2013-03-08 18:21:00,48.0,31.0,30.31,NE,45,3.0,7.0,51,0.00,,,0.00,,2013-03-08 23:21:00,
2013-03-08 18:32:00,47.0,30.0,30.31,East,90,2.0,5.0,52,0.00,,,0.00,,2013-03-08 23:32:00,
2013-03-08 18:42:00,47.0,30.0,30.31,East,90,2.0,5.0,52,0.00,,,0.00,,2013-03-08 23:42:00,
2013-03-08 18:53:00,45.0,30.0,30.31,ENE,67,3.0,6.0,55,0.00,,,0.00,,2013-03-08 23:53:00,
2013-03-08 19:01:00,45.0,30.0,30.31,NNE,22,2.0,3.0,56,0.00,,,0.00,,2013-03-09 00:01:00,
2013-03-08 19:11:00,45.0,30.0,30.31,NNE,22,2.0,3.0,56,0.00,,,0.00,,2013-03-09 00:11:00,
2013-03-08 19:22:00,43.0,30.0,30.31,ENE,67,1.0,2.0,59,0.00,,,0.00,,2013-03-09 00:22:00,
2013-03-08 19:32:00,42.0,30.0,30.31,ENE,67,1.0,2.0,62,0.00,,,0.00,,2013-03-09 00:32:00,
2013-03-08 19:42:00,42.0,30.0,30.31,ENE,67,1.0,2.0,62,0.00,,,0.00,,2013-03-09 00:42:00,
2013-03-08 19:52:00,41.0,29.0,30.31,East,90,1.0,2.0,63,0.00,,,0.00,,2013-03-09 00:52:00,
2013-03-08 20:01:00,41.0,30.0,30.29,ENE,67,3.0,4.0,64,0.00,,,0.00,,2013-03-09 01:01:00,
2013-03-08 20:12:00,40.0,30.0,30.29,NE,45,3.0,6.0,66,0.00,,,0.00,,2013-03-09 01:12:00,
2013-03-08 20:21:00,40.0,30.0,30.29,NE,45,3.0,6.0,66,0.00,,,0.00,,2013-03-09 01:21:00,
2013-03-08 20:32:00,40.0,30.0,30.29,NE,45,3.0,6.0,66,0.00,,,0.00,,2013-03-09 01:32:00,
2013-03-08 20:42:00,40.0,30.0,30.29,NE,45,3.0,6.0,66,0.00,,,0.00,,2013-03-09 01:42:00,
2013-03-08 20:52:00,40.0,30.0,30.29,NE,45,2.0,3.0,66,0.00,,,0.00,,2013-03-09 01:52:00,
2013-03-08 21:01:00,39.0,29.0,30.31,ENE,67,0.0,2.0,67,0.00,,,0.00,,2013-03-09 02:01:00,
2013-03-08 21:11:00,39.0,29.0,30.31,ENE,67,0.0,2.0,67,0.00,,,0.00,,2013-03-09 02:11:00,
2013-03-08 21:21:00,38.0,29.0,30.31,ENE,67,2.0,3.0,69,0.00,,,0.00,,2013-03-09 02:21:00,
2013-03-08 21:31:00,38.0,30.0,30.29,East,90,1.0,2.0,73,0.00,,,0.00,,2013-03-09 02:31:00,
2013-03-08 21:41:00,37.0,30.0,30.29,NE,45,3.0,6.0,75,0.00,,,0.00,,2013-03-09 02:41:00,
2013-03-08 21:51:00,37.0,30.0,30.29,NE,45,3.0,6.0,75,0.00,,,0.00,,2013-03-09 02:51:00,
2013-03-08 22:01:00,38.0,31.0,30.29,East,90,2.0,5.0,76,0.00,,,0.00,,2013-03-09 03:01:00,
2013-03-08 22:11:00,38.0,31.0,30.29,East,90,2.0,5.0,76,0.00,,,0.00,,2013-03-09 03:11:00,
2013-03-08 22:21:00,38.0,31.0,30.29,East,90,2.0,5.0,76,0.00,,,0.00,,2013-03-09 03:21:00,
2013-03-08 22:31:00,38.0,31.0,30.28,NE,45,2.0,5.0,76,0.00,,,0.00,,2013-03-09 03:31:00,
2013-03-08 22:41:00,38.0,31.0,30.28,NE,45,2.0,5.0,76,0.00,,,0.00,,2013-03-09 03:41:00,
2013-03-08 22:52:00,38.0,31.0,30.28,NE,45,2.0,5.0,76,0.00,,,0.00,,2013-03-09 03:52:00,
2013-03-08 23:01:00,37.0,30.0,30.28,North,360,1.0,2.0,77,0.00,,,0.00,,2013-03-09 04:01:00,
2013-03-08 23:11:00,37.0,30.0,30.28,North,360,1.0,2.0,77,0.00,,,0.00,,2013-03-09 04:11:00,
2013-03-08 23:22:00,37.0,31.0,30.28,NE,45,1.0,2.0,78,0.00,,,0.00,,2013-03-09 04:22:00,
2013-03-08 23:32:00,36.0,30.0,30.27,ENE,67,1.0,3.0,80,0.00,,,0.00,,2013-03-09 04:32:00,
2013-03-08 23:41:00,36.0,30.0,30.27,ENE,67,1.0,3.0,80,0.00,,,0.00,,2013-03-09 04:41:00,
2013-03-08 23:52:00,36.0,31.0,30.27,ENE,67,2.0,4.0,81,0.00,,,0.00,,2013-03-09 04:52:00,